createdAt,value
2022-09-02T00:03:35.515Z,69.98
2022-09-02T00:08:32.240Z,70.39
2022-09-02T00:13:29.851Z,69.74
2022-09-02T00:18:26.684Z,69.86
2022-09-02T00:23:24.126Z,70.34
2022-09-02T00:28:24.146Z,70.54
2022-09-02T00:33:21.493Z,71.73
2022-09-02T00:38:19.423Z,73.77
2022-09-02T00:43:22.800Z,73.77
2022-09-02T00:48:19.631Z,73.82
2022-09-02T00:53:17.757Z,73.89
2022-09-02T00:58:16.424Z,72.87
2022-09-02T01:03:14.236Z,73.51
2022-09-02T01:08:11.523Z,73.29
2022-09-02T01:13:10.569Z,73.02
2022-09-02T01:18:09.150Z,73.07
2022-09-02T01:23:06.546Z,74.61
2022-09-02T01:28:04.731Z,74.04
2022-09-02T01:33:02.114Z,73.87
2022-09-02T01:38:00.932Z,72.68
2022-09-02T01:43:00.927Z,73.14
2022-09-02T01:47:57.613Z,72.76
2022-09-02T01:52:54.792Z,71.40
2022-09-02T01:57:51.418Z,70.81
2022-09-02T02:02:50.351Z,68.93
2022-09-02T02:07:47.129Z,68.17
2022-09-02T02:12:43.793Z,65.17
2022-09-02T02:17:40.733Z,63.66
2022-09-02T02:22:38.451Z,62.62
2022-09-02T02:27:35.097Z,62.62
2022-09-02T02:32:35.706Z,62.18
2022-09-02T02:37:32.483Z,62.21
2022-09-02T02:42:29.862Z,63.53
2022-09-02T02:47:27.198Z,63.98
2022-09-02T02:52:23.858Z,64.30
2022-09-02T02:57:22.588Z,63.70
2022-09-02T03:02:21.312Z,63.06
2022-09-02T03:07:17.994Z,62.99
2022-09-02T03:12:16.428Z,61.52
2022-09-02T03:17:14.703Z,60.57
2022-09-02T03:22:12.833Z,59.56
2022-09-02T03:27:10.486Z,59.88
2022-09-02T03:32:08.030Z,58.41
2022-09-02T03:37:04.957Z,59.76
2022-09-02T03:42:02.320Z,58.90
2022-09-02T03:47:02.624Z,59.03
2022-09-02T03:51:59.391Z,59.53
2022-09-02T03:56:56.164Z,58.79
2022-09-02T04:01:55.051Z,59.39
2022-09-02T04:06:51.836Z,59.66
2022-09-02T04:11:48.728Z,59.83
2022-09-02T04:16:45.388Z,59.13
2022-09-02T04:21:44.273Z,60.04
2022-09-02T04:26:45.245Z,60.09
2022-09-02T04:31:44.886Z,60.82
2022-09-02T04:36:41.606Z,60.53
2022-09-02T04:41:39.903Z,60.24
2022-09-02T04:46:40.367Z,59.85
2022-09-02T04:51:41.454Z,59.62
2022-09-02T04:56:40.908Z,59.01
2022-09-02T05:01:38.484Z,57.86
2022-09-02T05:06:44.350Z,56.94
2022-09-02T05:11:47.410Z,56.46
2022-09-02T05:16:45.465Z,56.62
2022-09-02T05:21:46.399Z,57.44
2022-09-02T05:26:51.815Z,57.86
2022-09-02T05:31:48.679Z,57.83
2022-09-02T05:36:46.295Z,56.82
2022-09-02T05:41:43.158Z,56.85
2022-09-02T05:46:45.560Z,57.17
2022-09-02T05:51:46.424Z,55.62
2022-09-02T05:56:46.550Z,54.58
2022-09-02T06:01:45.389Z,53.93
2022-09-02T06:06:42.437Z,54.37
2022-09-02T06:11:44.038Z,53.28
2022-09-02T06:16:41.931Z,53.22
2022-09-02T06:21:47.308Z,53.97
2022-09-02T06:26:45.339Z,53.13
2022-09-02T06:31:42.420Z,53.06
2022-09-02T06:36:48.987Z,52.56
2022-09-02T06:41:48.534Z,52.37
2022-09-02T06:46:48.213Z,51.92
2022-09-02T06:51:50.046Z,51.84
2022-09-02T06:56:49.829Z,51.21
2022-09-02T07:01:51.187Z,52.25
2022-09-02T07:06:52.083Z,52.59
2022-09-02T07:11:52.041Z,51.39
2022-09-02T07:16:51.687Z,51.85
2022-09-02T07:21:49.531Z,51.85
2022-09-02T07:26:46.736Z,52.76
2022-09-02T07:31:47.085Z,53.46
2022-09-02T07:36:47.970Z,53.37
2022-09-02T07:41:49.963Z,53.11
2022-09-02T07:46:48.755Z,53.37
2022-09-02T07:51:49.425Z,53.60
2022-09-02T07:56:49.186Z,52.91
2022-09-02T08:01:48.863Z,52.81
2022-09-02T08:06:47.169Z,51.92
2022-09-02T08:11:48.763Z,53.17
2022-09-02T08:16:46.305Z,52.79
2022-09-02T08:21:44.107Z,53.42
2022-09-02T08:26:40.832Z,53.43
2022-09-02T08:31:38.152Z,53.22
2022-09-02T08:36:34.792Z,52.08
2022-09-02T08:41:33.916Z,52.06
2022-09-02T08:46:32.332Z,51.55
2022-09-02T08:51:37.242Z,51.37
2022-09-02T08:56:35.101Z,52.10
2022-09-02T09:01:38.886Z,51.76
2022-09-02T09:06:51.756Z,52.46
2022-09-02T09:11:54.045Z,52.20
2022-09-02T09:16:55.812Z,51.91
2022-09-02T09:21:53.599Z,52.59
2022-09-02T09:26:50.883Z,53.70
2022-09-02T09:31:51.342Z,52.11
2022-09-02T09:36:52.940Z,52.46
2022-09-02T09:41:51.538Z,52.36
2022-09-02T09:47:00.164Z,51.20
2022-09-02T09:51:56.889Z,52.08
2022-09-02T09:56:55.111Z,51.67
2022-09-02T10:01:54.350Z,50.68
2022-09-02T10:06:51.101Z,51.23
2022-09-02T10:11:55.133Z,50.25
2022-09-02T10:16:57.734Z,51.99
2022-09-02T10:22:22.137Z,51.50
2022-09-02T10:27:37.376Z,51.46
2022-09-02T10:32:40.784Z,50.66
2022-09-02T10:37:42.196Z,51.24
2022-09-02T10:42:58.063Z,51.38
2022-09-02T10:48:02.319Z,51.84
2022-09-02T10:53:09.653Z,51.98
2022-09-02T10:58:09.133Z,52.10
2022-09-02T11:03:10.026Z,51.87
2022-09-02T11:08:10.426Z,52.42
2022-09-02T11:13:11.951Z,53.07
2022-09-02T11:23:20.134Z,53.11
2022-09-02T11:28:27.023Z,52.38
2022-09-02T11:33:28.240Z,52.84
2022-09-02T11:38:32.311Z,51.90
2022-09-02T11:43:35.157Z,52.45
2022-09-02T11:48:46.353Z,51.11
2022-09-02T11:53:45.780Z,51.35
2022-09-02T11:58:43.954Z,51.62
2022-09-02T12:04:06.825Z,50.80
2022-09-02T12:09:05.380Z,51.44
2022-09-02T12:14:04.531Z,54.68
2022-09-02T12:19:25.061Z,55.06
2022-09-02T12:24:21.685Z,56.30
2022-09-02T12:29:31.586Z,57.34
2022-09-02T12:34:46.781Z,58.39
2022-09-02T12:39:50.301Z,59.03
2022-09-02T12:44:52.718Z,60.56
2022-09-02T12:49:52.933Z,60.81
2022-09-02T12:54:50.156Z,61.83
2022-09-02T12:59:47.801Z,60.60
2022-09-02T13:04:48.981Z,61.98
2022-09-02T13:09:57.084Z,73.43
2022-09-02T13:14:58.664Z,76.44
2022-09-02T13:20:08.580Z,75.89
2022-09-02T13:25:25.032Z,74.64
2022-09-02T13:30:26.079Z,76.16
2022-09-02T13:35:30.398Z,76.49
2022-09-02T13:40:28.138Z,76.66
2022-09-02T13:45:26.197Z,76.52
2022-09-02T13:50:24.338Z,75.96
2022-09-02T13:55:21.464Z,75.22
2022-09-02T14:00:31.247Z,72.59
2022-09-02T14:05:29.036Z,76.28
2022-09-02T14:10:27.644Z,79.60
2022-09-02T14:15:25.375Z,82.30
2022-09-02T14:20:22.751Z,85.49
2022-09-02T14:25:24.163Z,83.41
2022-09-02T14:30:29.471Z,83.74
2022-09-02T14:35:27.289Z,83.45
2022-09-02T14:40:34.875Z,82.26
2022-09-02T14:45:32.377Z,81.58
2022-09-02T14:50:32.065Z,80.50
2022-09-02T14:55:51.753Z,80.86
2022-09-02T15:00:51.489Z,80.22
2022-09-02T15:05:48.524Z,77.80
2022-09-02T15:10:45.461Z,80.20
2022-09-02T15:15:42.964Z,79.45
2022-09-02T15:20:39.635Z,80.06
2022-09-02T15:25:36.336Z,77.54
2022-09-02T15:30:33.866Z,76.60
2022-09-02T15:35:32.235Z,76.30
2022-09-02T15:40:29.186Z,77.30
2022-09-02T15:45:27.386Z,77.34
2022-09-02T15:50:23.986Z,77.62
2022-09-02T15:55:29.052Z,78.02
2022-09-02T16:00:28.531Z,80.09
2022-09-02T16:05:25.410Z,82.09
2022-09-02T16:10:22.174Z,82.35
2022-09-02T16:15:20.369Z,84.85
2022-09-02T16:20:21.125Z,83.92
2022-09-02T16:25:18.140Z,82.57
2022-09-02T16:30:15.604Z,83.48
2022-09-02T16:35:13.144Z,85.04
2022-09-02T16:40:10.857Z,86.07
2022-09-02T16:45:08.095Z,84.73
2022-09-02T16:50:05.068Z,83.29
2022-09-02T16:55:02.468Z,83.64
2022-09-02T16:59:59.309Z,84.37
2022-09-02T17:04:56.025Z,84.14
2022-09-02T17:09:52.609Z,82.75
2022-09-02T17:14:50.029Z,82.42
2022-09-02T17:19:46.609Z,80.38
2022-09-02T17:24:43.246Z,79.41
2022-09-02T17:29:49.255Z,80.07
2022-09-02T17:34:49.138Z,78.92
2022-09-02T17:39:46.707Z,79.15
2022-09-02T17:44:43.740Z,80.02
2022-09-02T17:49:41.676Z,80.18
2022-09-02T17:54:39.916Z,79.73
2022-09-02T17:59:41.339Z,80.25
2022-09-02T18:04:43.179Z,82.35
2022-09-02T18:09:40.432Z,84.97
2022-09-02T18:14:40.531Z,85.67
2022-09-02T18:19:45.371Z,85.94
2022-09-02T18:24:52.881Z,86.64
2022-09-02T18:30:00.583Z,87.12
2022-09-02T18:35:05.463Z,89.41
2022-09-02T18:40:10.740Z,91.36
2022-09-02T18:45:11.014Z,91.88
2022-09-02T18:50:07.866Z,93.09
2022-09-02T18:55:09.701Z,93.13
2022-09-02T19:00:07.956Z,90.87
2022-09-02T19:05:06.597Z,89.89
2022-09-02T19:10:03.628Z,89.57
2022-09-02T19:15:01.472Z,89.72
2022-09-02T19:19:58.119Z,88.72
2022-09-02T19:24:59.157Z,88.71
2022-09-02T19:29:59.656Z,88.41
2022-09-02T19:34:57.347Z,88.13
2022-09-02T19:39:54.116Z,89.03
2022-09-02T19:44:50.785Z,90.15
2022-09-02T19:49:47.492Z,89.07
2022-09-02T19:54:44.742Z,93.41
2022-09-02T19:59:41.305Z,94.77
2022-09-02T20:04:38.132Z,97.15
2022-09-02T20:09:34.685Z,99.35
2022-09-02T20:14:33.413Z,98.38
2022-09-02T20:19:31.357Z,96.37
2022-09-02T20:24:30.613Z,95.42
2022-09-02T20:29:34.089Z,95.50
2022-09-02T20:34:37.923Z,94.58
2022-09-02T20:39:42.982Z,94.30
2022-09-02T20:44:47.033Z,93.78
2022-09-02T20:49:53.413Z,93.91
2022-09-02T20:54:54.582Z,93.39
2022-09-02T20:59:56.071Z,94.46
2022-09-02T21:04:55.545Z,95.50
2022-09-02T21:09:55.737Z,93.50
2022-09-02T21:14:55.639Z,94.62
2022-09-02T21:19:55.004Z,95.00
2022-09-02T21:24:55.686Z,95.80
2022-09-02T21:29:56.996Z,93.40
2022-09-02T21:34:59.911Z,92.24
2022-09-02T21:40:01.701Z,88.60
2022-09-02T21:45:05.227Z,92.74
2022-09-02T21:50:06.011Z,96.07
2022-09-02T21:55:08.863Z,96.49
2022-09-02T22:00:07.465Z,96.63
2022-09-02T22:05:19.200Z,96.25
2022-09-02T22:10:19.826Z,94.48
2022-09-02T22:15:18.099Z,94.85
2022-09-02T22:20:16.891Z,93.07
2022-09-02T22:25:14.300Z,93.48
2022-09-02T22:30:12.892Z,95.16
2022-09-02T22:35:15.871Z,95.97
2022-09-02T22:40:14.703Z,93.85
2022-09-02T22:45:31.855Z,93.48
2022-09-02T22:50:51.497Z,93.37
2022-09-02T22:55:58.139Z,92.69
2022-09-02T23:01:00.782Z,92.75
2022-09-02T23:06:08.005Z,92.35
2022-09-02T23:11:10.931Z,93.30
2022-09-02T23:16:13.975Z,91.85
2022-09-02T23:21:16.373Z,91.03
2022-09-02T23:26:20.236Z,90.46
2022-09-02T23:31:21.844Z,90.17
2022-09-02T23:36:21.320Z,88.53
2022-09-02T23:41:17.998Z,88.09
2022-09-02T23:46:19.576Z,89.89
2022-09-02T23:51:18.549Z,90.73
2022-09-02T23:56:21.661Z,91.24
